createdAt,value
2022-10-11T00:00:34.984Z,6.20
2022-10-11T00:05:31.227Z,6.10
2022-10-11T00:07:58.662Z,6.00
2022-10-11T00:10:25.951Z,6.00
2022-10-11T00:12:52.968Z,6.00
2022-10-11T00:15:22.046Z,6.00
2022-10-11T00:17:49.656Z,6.00
2022-10-11T00:20:17.092Z,5.90
2022-10-11T00:22:45.000Z,5.90
2022-10-11T00:25:13.316Z,5.90
2022-10-11T00:27:40.344Z,5.90
2022-10-11T00:30:09.308Z,5.90
2022-10-11T00:32:38.339Z,5.90
2022-10-11T00:35:07.628Z,5.80
2022-10-11T00:37:37.175Z,5.80
2022-10-11T00:40:14.248Z,5.80
2022-10-11T00:42:42.781Z,5.70
2022-10-11T00:45:28.045Z,5.70
2022-10-11T00:48:04.772Z,5.60
2022-10-11T00:50:35.165Z,5.60
2022-10-11T00:53:09.984Z,5.60
2022-10-11T00:55:48.054Z,5.50
2022-10-11T00:58:17.145Z,5.50
2022-10-11T01:00:44.820Z,5.50
2022-10-11T01:03:11.855Z,5.50
2022-10-11T01:05:39.934Z,5.50
2022-10-11T01:08:08.498Z,5.50
2022-10-11T01:10:35.913Z,5.40
2022-10-11T01:13:17.252Z,5.40
2022-10-11T01:16:19.360Z,5.30
2022-10-11T01:19:14.914Z,5.40
2022-10-11T01:21:59.652Z,5.40
2022-10-11T01:25:06.217Z,5.30
2022-10-11T01:27:53.248Z,5.20
2022-10-11T01:30:28.120Z,5.20
2022-10-11T01:33:25.203Z,5.20
2022-10-11T01:36:27.989Z,5.10
2022-10-11T01:39:20.978Z,5.10
2022-10-11T01:41:52.583Z,5.10
2022-10-11T01:44:20.668Z,5.10
2022-10-11T01:46:47.687Z,5.10
2022-10-11T01:49:14.629Z,5.10
2022-10-11T01:51:47.695Z,5.10
2022-10-11T01:55:07.601Z,5.00
2022-10-11T01:57:49.555Z,5.10
2022-10-11T02:00:37.742Z,5.10
2022-10-11T02:03:29.247Z,5.20
2022-10-11T02:06:17.974Z,5.10
2022-10-11T02:09:10.837Z,5.00
2022-10-11T02:11:39.051Z,5.00
2022-10-11T02:14:15.899Z,5.00
2022-10-11T02:17:04.172Z,4.90
2022-10-11T02:19:38.718Z,4.80
2022-10-11T02:22:15.121Z,4.80
2022-10-11T02:24:46.417Z,4.80
2022-10-11T02:27:15.654Z,4.80
2022-10-11T02:29:45.222Z,4.80
2022-10-11T02:32:13.967Z,4.80
2022-10-11T02:34:55.174Z,4.80
2022-10-11T02:37:42.132Z,4.80
2022-10-11T02:40:24.691Z,4.70
2022-10-11T02:43:06.234Z,4.70
2022-10-11T02:45:43.387Z,4.70
2022-10-11T02:48:12.580Z,4.80
2022-10-11T02:50:41.571Z,4.70
2022-10-11T02:53:09.479Z,4.70
2022-10-11T02:55:36.832Z,4.70
2022-10-11T02:58:03.911Z,4.70
2022-10-11T03:00:31.283Z,4.60
2022-10-11T03:02:58.317Z,4.60
2022-10-11T03:05:25.348Z,4.60
2022-10-11T03:07:52.344Z,4.60
2022-10-11T03:10:19.333Z,4.50
2022-10-11T03:12:46.386Z,4.40
2022-10-11T03:15:13.444Z,4.50
2022-10-11T03:17:40.429Z,4.50
2022-10-11T03:20:08.217Z,4.50
2022-10-11T03:22:35.316Z,4.40
2022-10-11T03:25:04.377Z,4.40
2022-10-11T03:27:33.266Z,4.40
2022-10-11T03:30:00.953Z,4.40
2022-10-11T03:32:28.734Z,4.40
2022-10-11T03:34:55.924Z,4.30
2022-10-11T03:37:23.075Z,4.30
2022-10-11T03:39:50.322Z,4.30
2022-10-11T03:42:17.342Z,4.30
2022-10-11T03:44:44.321Z,4.20
2022-10-11T03:47:11.505Z,4.20
2022-10-11T03:49:43.814Z,4.20
2022-10-11T03:52:12.071Z,4.10
2022-10-11T03:54:48.861Z,4.20
2022-10-11T03:57:16.141Z,4.20
2022-10-11T03:59:43.118Z,4.10
2022-10-11T04:02:10.397Z,4.10
2022-10-11T04:04:37.587Z,4.10
2022-10-11T04:07:04.703Z,4.10
2022-10-11T04:09:31.814Z,4.10
2022-10-11T04:11:59.000Z,4.10
2022-10-11T04:14:27.028Z,4.00
2022-10-11T04:16:56.427Z,4.00
2022-10-11T04:19:26.736Z,4.00
2022-10-11T04:21:53.753Z,4.00
2022-10-11T04:24:20.780Z,4.00
2022-10-11T04:26:48.090Z,3.90
2022-10-11T04:29:15.493Z,3.90
2022-10-11T04:31:42.542Z,4.00
2022-10-11T04:34:09.514Z,3.90
2022-10-11T04:36:36.680Z,3.90
2022-10-11T04:39:03.829Z,3.90
2022-10-11T04:41:30.845Z,3.90
2022-10-11T04:43:58.035Z,3.80
2022-10-11T04:46:25.571Z,3.80
2022-10-11T04:48:52.723Z,3.80
2022-10-11T04:51:20.301Z,3.70
2022-10-11T04:53:49.277Z,3.70
2022-10-11T04:56:18.557Z,3.70
2022-10-11T04:58:49.443Z,3.70
2022-10-11T05:01:16.560Z,3.70
2022-10-11T05:03:43.567Z,3.70
2022-10-11T05:06:11.084Z,3.70
2022-10-11T05:08:38.560Z,3.70
2022-10-11T05:11:10.907Z,3.70
2022-10-11T05:13:38.098Z,3.70
2022-10-11T05:16:10.558Z,3.70
2022-10-11T05:18:39.083Z,3.70
2022-10-11T05:21:21.826Z,3.70
2022-10-11T05:23:51.674Z,3.70
2022-10-11T05:26:20.337Z,3.60
2022-10-11T05:28:48.135Z,3.50
2022-10-11T05:31:16.489Z,3.60
2022-10-11T05:33:43.645Z,3.60
2022-10-11T05:36:11.060Z,3.60
2022-10-11T05:38:38.656Z,3.50
2022-10-11T05:41:06.715Z,3.50
2022-10-11T05:43:33.659Z,3.50
2022-10-11T05:46:00.784Z,3.60
2022-10-11T05:48:28.755Z,3.60
2022-10-11T05:51:05.246Z,3.50
2022-10-11T05:53:33.289Z,3.50
2022-10-11T05:56:00.755Z,3.40
2022-10-11T05:58:28.659Z,3.50
2022-10-11T06:00:56.951Z,3.60
2022-10-11T06:03:24.487Z,3.60
2022-10-11T06:05:56.476Z,3.50
2022-10-11T06:08:24.107Z,3.60
2022-10-11T06:10:51.106Z,3.60
2022-10-11T06:13:18.494Z,3.60
2022-10-11T06:15:45.479Z,3.70
2022-10-11T06:18:12.437Z,3.70
2022-10-11T06:20:39.431Z,3.70
2022-10-11T06:23:06.445Z,3.70
2022-10-11T06:25:33.538Z,3.80
2022-10-11T06:28:00.632Z,3.80
2022-10-11T06:30:27.725Z,3.80
2022-10-11T06:32:54.797Z,3.80
2022-10-11T06:35:21.789Z,3.80
2022-10-11T06:37:48.881Z,3.80
2022-10-11T06:40:16.198Z,3.90
2022-10-11T06:42:43.299Z,4.00
2022-10-11T06:45:10.592Z,4.00
2022-10-11T06:47:37.750Z,4.10
2022-10-11T06:50:06.313Z,4.10
2022-10-11T06:52:33.306Z,4.20
2022-10-11T06:55:00.229Z,4.30
2022-10-11T06:57:29.318Z,4.40
2022-10-11T06:59:56.643Z,4.50
2022-10-11T07:02:23.770Z,4.60
2022-10-11T07:04:50.905Z,4.60
2022-10-11T07:07:18.080Z,4.70
2022-10-11T07:09:45.060Z,4.70
2022-10-11T07:12:12.058Z,4.70
2022-10-11T07:14:39.735Z,4.90
2022-10-11T07:17:07.054Z,5.00
2022-10-11T07:19:34.356Z,5.00
2022-10-11T07:22:01.385Z,5.10
2022-10-11T07:24:28.472Z,5.20
2022-10-11T07:26:55.571Z,5.20
2022-10-11T07:29:23.022Z,5.30
2022-10-11T07:31:50.629Z,5.30
2022-10-11T07:34:22.480Z,5.50
2022-10-11T07:36:49.631Z,5.60
2022-10-11T07:39:16.641Z,5.60
2022-10-11T07:41:46.023Z,5.70
2022-10-11T07:44:14.641Z,5.80
2022-10-11T07:46:41.875Z,5.90
2022-10-11T07:49:08.941Z,6.00
2022-10-11T07:51:35.981Z,6.10
2022-10-11T07:54:31.883Z,6.30
2022-10-11T07:56:58.904Z,6.40
2022-10-11T07:59:26.133Z,6.60
2022-10-11T08:01:53.272Z,6.70
2022-10-11T08:04:21.488Z,6.80
2022-10-11T08:06:52.529Z,7.00
2022-10-11T08:09:20.545Z,7.20
2022-10-11T08:11:47.499Z,7.30
2022-10-11T08:14:14.503Z,7.40
2022-10-11T08:16:41.669Z,7.50
2022-10-11T08:19:10.438Z,7.70
2022-10-11T08:21:37.496Z,7.90
2022-10-11T08:24:06.280Z,8.00
2022-10-11T08:26:34.050Z,8.10
2022-10-11T08:29:03.531Z,8.20
2022-10-11T08:31:31.413Z,8.40
2022-10-11T08:33:58.672Z,8.50
2022-10-11T08:36:25.986Z,8.70
2022-10-11T08:38:53.085Z,8.90
2022-10-11T08:41:27.789Z,8.90
2022-10-11T08:44:10.525Z,9.10
2022-10-11T08:46:43.497Z,9.40
2022-10-11T08:49:13.691Z,9.50
2022-10-11T08:51:52.690Z,9.60
2022-10-11T08:54:30.979Z,9.70
2022-10-11T08:56:58.216Z,9.80
2022-10-11T08:59:51.257Z,10.00
2022-10-11T09:03:06.368Z,10.10
2022-10-11T09:05:34.073Z,10.20
2022-10-11T09:08:23.793Z,10.30
2022-10-11T09:11:32.123Z,10.40
2022-10-11T09:14:22.630Z,10.60
2022-10-11T09:17:14.581Z,10.70
2022-10-11T09:20:34.320Z,11.00
2022-10-11T09:23:32.219Z,11.10
2022-10-11T09:26:30.325Z,11.10
2022-10-11T09:29:15.935Z,11.20
2022-10-11T09:31:53.442Z,11.30
2022-10-11T09:34:25.434Z,11.40
2022-10-11T09:37:37.453Z,11.60
2022-10-11T09:40:10.458Z,11.50
2022-10-11T09:42:37.703Z,11.60
2022-10-11T09:45:21.048Z,11.70
2022-10-11T09:47:52.730Z,11.60
2022-10-11T09:50:26.041Z,11.60
2022-10-11T09:53:00.323Z,11.80
2022-10-11T09:55:53.168Z,11.80
2022-10-11T09:58:36.043Z,11.90
2022-10-11T10:01:16.642Z,11.90
2022-10-11T10:03:46.592Z,11.90
2022-10-11T10:06:28.404Z,11.90
2022-10-11T10:09:15.299Z,11.90
2022-10-11T10:11:42.277Z,12.00
2022-10-11T10:14:30.135Z,12.10
2022-10-11T10:17:13.913Z,12.30
2022-10-11T10:19:51.170Z,12.10
2022-10-11T10:22:27.437Z,12.20
2022-10-11T10:24:56.759Z,12.40
2022-10-11T10:27:30.381Z,12.60
2022-10-11T10:30:15.992Z,12.60
2022-10-11T10:33:07.106Z,12.60
2022-10-11T10:35:46.238Z,12.60
2022-10-11T10:38:26.460Z,12.90
2022-10-11T10:41:12.772Z,12.60
2022-10-11T10:43:42.900Z,12.70
2022-10-11T10:46:12.845Z,12.70
2022-10-11T10:49:41.170Z,12.70
2022-10-11T10:52:05.927Z,12.70
2022-10-11T10:55:14.071Z,12.80
2022-10-11T10:58:15.171Z,12.90
2022-10-11T11:01:23.962Z,13.00
2022-10-11T11:04:18.784Z,13.10
2022-10-11T11:06:59.395Z,13.20
2022-10-11T11:09:46.819Z,13.10
2022-10-11T11:12:44.609Z,13.20
2022-10-11T11:15:44.025Z,13.30
2022-10-11T11:18:22.169Z,13.30
2022-10-11T11:21:31.963Z,13.30
2022-10-11T11:24:41.882Z,13.30
2022-10-11T11:27:40.719Z,13.50
2022-10-11T11:30:19.008Z,13.70
2022-10-11T11:33:38.967Z,13.80
2022-10-11T11:36:23.449Z,13.70
2022-10-11T11:39:01.744Z,13.80
2022-10-11T11:41:51.408Z,13.80
2022-10-11T11:44:40.243Z,13.50
2022-10-11T11:47:34.120Z,13.60
2022-10-11T11:50:23.528Z,13.60
2022-10-11T11:53:00.763Z,13.80
2022-10-11T11:55:55.223Z,13.80
2022-10-11T11:59:10.208Z,14.00
2022-10-11T12:02:09.027Z,14.20
2022-10-11T12:04:41.984Z,14.10
2022-10-11T12:07:16.658Z,14.00
2022-10-11T12:09:52.862Z,14.10
2022-10-11T12:12:37.541Z,14.20
2022-10-11T12:15:24.620Z,14.20
2022-10-11T12:17:57.690Z,14.20
2022-10-11T12:20:31.568Z,14.30
2022-10-11T12:23:29.417Z,14.30
2022-10-11T12:26:28.405Z,14.40
2022-10-11T12:29:06.038Z,14.40
2022-10-11T12:31:39.363Z,14.40
2022-10-11T12:34:43.223Z,14.40
2022-10-11T12:37:22.487Z,14.40
2022-10-11T12:39:54.860Z,14.10
2022-10-11T12:42:29.180Z,14.00
2022-10-11T12:45:11.974Z,14.00
2022-10-11T12:48:22.894Z,14.20
2022-10-11T12:51:28.436Z,14.50
2022-10-11T12:54:36.859Z,14.40
2022-10-11T12:57:45.317Z,14.50
2022-10-11T13:00:34.833Z,14.80
2022-10-11T13:03:26.198Z,14.90
2022-10-11T13:06:01.452Z,14.90
2022-10-11T13:08:39.493Z,15.10
2022-10-11T13:11:16.481Z,15.00
2022-10-11T13:13:58.935Z,15.20
2022-10-11T13:17:00.997Z,15.30
2022-10-11T13:19:29.318Z,15.30
2022-10-11T13:22:01.683Z,15.30
2022-10-11T13:24:39.792Z,15.30
2022-10-11T13:27:08.138Z,15.20
2022-10-11T13:29:39.693Z,15.10
2022-10-11T13:32:16.847Z,14.80
2022-10-11T13:34:49.590Z,14.90
2022-10-11T13:37:24.383Z,14.90
2022-10-11T13:39:56.571Z,14.80
2022-10-11T13:42:31.940Z,14.80
2022-10-11T13:45:00.738Z,14.70
2022-10-11T13:47:30.805Z,14.60
2022-10-11T13:50:35.448Z,14.60
2022-10-11T13:53:09.856Z,14.50
2022-10-11T13:55:56.111Z,14.60
2022-10-11T13:58:45.004Z,14.70
2022-10-11T14:01:26.826Z,14.70
2022-10-11T14:04:00.551Z,14.70
2022-10-11T14:06:56.117Z,14.70
2022-10-11T14:09:37.051Z,14.80
2022-10-11T14:12:28.652Z,14.80
2022-10-11T14:14:55.674Z,14.80
2022-10-11T14:17:43.832Z,14.80
2022-10-11T14:20:28.443Z,14.60
2022-10-11T14:22:59.396Z,14.60
2022-10-11T14:25:26.702Z,14.50
2022-10-11T14:27:54.653Z,14.60
2022-10-11T14:30:26.670Z,14.70
2022-10-11T14:33:01.222Z,14.60
2022-10-11T14:35:31.844Z,14.60
2022-10-11T14:37:59.352Z,14.70
2022-10-11T14:40:31.131Z,14.70
2022-10-11T14:42:58.262Z,14.60
2022-10-11T14:45:25.665Z,14.50
2022-10-11T14:47:52.782Z,14.60
2022-10-11T14:50:31.950Z,14.60
2022-10-11T14:52:59.901Z,14.60
2022-10-11T14:55:27.086Z,14.70
2022-10-11T14:57:54.511Z,14.60
2022-10-11T15:00:26.460Z,14.60
2022-10-11T15:02:54.911Z,14.50
2022-10-11T15:05:28.758Z,14.60
2022-10-11T15:07:59.922Z,14.60
2022-10-11T15:10:30.568Z,14.60
2022-10-11T15:12:57.767Z,14.60
2022-10-11T15:15:30.700Z,14.60
2022-10-11T15:18:00.263Z,14.60
2022-10-11T15:20:39.116Z,14.60
2022-10-11T15:23:09.427Z,14.60
2022-10-11T15:25:38.978Z,14.60
2022-10-11T15:28:07.428Z,14.60
2022-10-11T15:30:41.375Z,14.50
2022-10-11T15:33:09.111Z,14.50
2022-10-11T15:35:36.512Z,14.40
2022-10-11T15:38:03.579Z,14.30
2022-10-11T15:40:36.945Z,14.40
2022-10-11T15:43:04.993Z,14.30
2022-10-11T15:45:32.172Z,14.20
2022-10-11T15:47:59.465Z,14.20
2022-10-11T15:50:37.391Z,14.10
2022-10-11T15:53:08.212Z,14.10
2022-10-11T15:55:39.595Z,14.20
2022-10-11T15:58:12.753Z,14.20
2022-10-11T16:00:39.746Z,14.30
2022-10-11T16:03:07.182Z,14.50
2022-10-11T16:05:34.149Z,14.30
2022-10-11T16:08:01.093Z,14.10
2022-10-11T16:10:28.550Z,14.00
2022-10-11T16:12:56.199Z,13.90
2022-10-11T16:15:24.799Z,13.80
2022-10-11T16:17:51.954Z,13.80
2022-10-11T16:20:22.448Z,13.70
2022-10-11T16:22:50.845Z,13.60
2022-10-11T16:25:19.131Z,13.40
2022-10-11T16:27:46.316Z,13.30
2022-10-11T16:30:15.759Z,13.20
2022-10-11T16:32:44.473Z,13.00
2022-10-11T16:35:13.936Z,13.00
2022-10-11T16:37:41.058Z,12.80
2022-10-11T16:40:10.272Z,12.70
2022-10-11T16:42:39.462Z,12.60
2022-10-11T16:45:08.315Z,12.30
2022-10-11T16:47:35.430Z,12.20
2022-10-11T16:50:02.642Z,12.00
2022-10-11T16:52:29.729Z,11.90
2022-10-11T16:54:56.895Z,11.80
2022-10-11T16:57:24.405Z,11.70
2022-10-11T16:59:51.678Z,11.60
2022-10-11T17:02:23.272Z,11.40
2022-10-11T17:04:51.753Z,11.40
2022-10-11T17:07:20.740Z,11.30
2022-10-11T17:09:49.075Z,11.20
2022-10-11T17:12:20.859Z,11.10
2022-10-11T17:14:49.623Z,11.00
2022-10-11T17:17:18.764Z,10.90
2022-10-11T17:19:47.670Z,10.80
2022-10-11T17:22:19.503Z,10.70
2022-10-11T17:24:46.610Z,10.60
2022-10-11T17:27:14.257Z,10.60
2022-10-11T17:29:41.222Z,10.50
2022-10-11T17:32:08.838Z,10.40
2022-10-11T17:34:35.857Z,10.30
2022-10-11T17:37:02.977Z,10.30
2022-10-11T17:39:30.114Z,10.20
2022-10-11T17:41:57.047Z,10.10
2022-10-11T17:44:24.035Z,10.10
2022-10-11T17:46:51.088Z,10.00
2022-10-11T17:49:18.236Z,10.00
2022-10-11T17:51:45.400Z,9.90
2022-10-11T17:54:13.043Z,9.90
2022-10-11T17:56:42.144Z,9.80
2022-10-11T17:59:16.728Z,9.80
2022-10-11T18:01:43.919Z,9.70
2022-10-11T18:04:16.517Z,9.70
2022-10-11T18:06:46.281Z,9.60
2022-10-11T18:09:15.522Z,9.50
2022-10-11T18:11:43.198Z,9.50
2022-10-11T18:14:10.459Z,9.50
2022-10-11T18:16:38.658Z,9.50
2022-10-11T18:19:10.485Z,9.40
2022-10-11T18:21:38.371Z,9.40
2022-10-11T18:24:15.010Z,9.30
2022-10-11T18:26:43.853Z,9.30
2022-10-11T18:29:12.586Z,9.20
2022-10-11T18:31:40.139Z,9.10
2022-10-11T18:34:10.738Z,9.10
2022-10-11T18:36:38.700Z,9.10
2022-10-11T18:39:09.179Z,9.00
2022-10-11T18:41:39.401Z,9.00
2022-10-11T18:44:08.966Z,9.00
2022-10-11T18:46:36.499Z,9.00
2022-10-11T18:49:03.897Z,8.90
2022-10-11T18:51:34.614Z,8.80
2022-10-11T18:54:03.238Z,8.80
2022-10-11T18:56:31.550Z,8.80
2022-10-11T18:58:59.473Z,8.70
2022-10-11T19:01:34.196Z,8.60
2022-10-11T19:04:03.315Z,8.60
2022-10-11T19:06:35.110Z,8.50
2022-10-11T19:09:21.683Z,8.50
2022-10-11T19:11:51.265Z,8.50
2022-10-11T19:14:22.091Z,8.40
2022-10-11T19:16:51.576Z,8.30
2022-10-11T19:19:25.873Z,8.30
2022-10-11T19:21:53.245Z,8.20
2022-10-11T19:24:24.867Z,8.20
2022-10-11T19:26:58.541Z,8.30
2022-10-11T19:29:29.257Z,8.40
2022-10-11T19:32:00.344Z,8.20
2022-10-11T19:34:31.774Z,8.10
2022-10-11T19:37:01.054Z,8.10
2022-10-11T19:39:29.591Z,8.10
2022-10-11T19:41:56.775Z,8.10
2022-10-11T19:44:23.841Z,8.10
2022-10-11T19:46:52.416Z,8.00
2022-10-11T19:49:25.845Z,8.00
2022-10-11T19:51:53.784Z,8.10
2022-10-11T19:54:21.056Z,7.90
2022-10-11T19:56:48.709Z,7.90
2022-10-11T19:59:16.392Z,7.80
2022-10-11T20:01:46.676Z,7.70
2022-10-11T20:04:39.638Z,7.60
2022-10-11T20:07:03.741Z,7.50
2022-10-11T20:09:31.175Z,7.50
2022-10-11T20:11:58.729Z,7.50
2022-10-11T20:14:26.221Z,7.50
2022-10-11T20:16:53.840Z,7.50
2022-10-11T20:19:26.209Z,7.40
2022-10-11T20:21:54.919Z,7.40
2022-10-11T20:24:21.967Z,7.30
2022-10-11T20:26:48.970Z,7.30
2022-10-11T20:29:15.962Z,7.20
2022-10-11T20:31:42.914Z,7.20
2022-10-11T20:34:10.042Z,7.20
2022-10-11T20:36:38.031Z,7.20
2022-10-11T20:39:06.593Z,7.20
2022-10-11T20:41:39.977Z,7.10
2022-10-11T20:44:07.988Z,7.10
2022-10-11T20:46:38.814Z,7.00
2022-10-11T20:49:10.581Z,6.90
2022-10-11T20:51:39.776Z,6.80
2022-10-11T20:54:06.772Z,6.80
2022-10-11T20:56:34.575Z,6.80
2022-10-11T20:59:02.010Z,6.70
2022-10-11T21:01:37.180Z,6.80
2022-10-11T21:04:06.397Z,6.70
2022-10-11T21:06:34.452Z,6.60
2022-10-11T21:09:02.678Z,6.60
2022-10-11T21:11:33.316Z,6.60
2022-10-11T21:14:03.858Z,6.50
2022-10-11T21:16:31.701Z,6.40
2022-10-11T21:19:00.750Z,6.50
2022-10-11T21:21:29.489Z,6.50
2022-10-11T21:23:59.859Z,6.50
2022-10-11T21:26:28.453Z,6.50
2022-10-11T21:28:59.577Z,6.40
2022-10-11T21:31:31.281Z,6.40
2022-10-11T21:34:00.813Z,6.40
2022-10-11T21:36:27.920Z,6.40
2022-10-11T21:38:54.974Z,6.30
2022-10-11T21:41:29.985Z,6.20
2022-10-11T21:43:57.944Z,6.20
2022-10-11T21:46:47.984Z,6.10
2022-10-11T21:49:15.973Z,6.00
2022-10-11T21:51:42.995Z,6.00
2022-10-11T21:54:10.182Z,6.00
2022-10-11T21:56:37.146Z,5.90
2022-10-11T21:59:06.564Z,6.00
2022-10-11T22:01:39.962Z,5.90
2022-10-11T22:04:07.550Z,5.90
2022-10-11T22:06:35.404Z,5.90
2022-10-11T22:09:03.911Z,5.90
2022-10-11T22:11:31.478Z,5.90
2022-10-11T22:13:58.908Z,6.20
2022-10-11T22:16:25.944Z,5.80
2022-10-11T22:18:55.935Z,5.80
2022-10-11T22:21:24.780Z,5.90
2022-10-11T22:23:54.015Z,5.70
2022-10-11T22:26:25.745Z,5.90
2022-10-11T22:28:53.420Z,5.80
2022-10-11T22:31:22.341Z,5.60
2022-10-11T22:33:54.521Z,5.60
2022-10-11T22:36:24.105Z,5.60
2022-10-11T22:38:51.837Z,5.60
2022-10-11T22:41:19.158Z,5.60
2022-10-11T22:43:46.380Z,5.60
2022-10-11T22:46:13.358Z,5.60
2022-10-11T22:48:40.623Z,5.50
2022-10-11T22:51:08.229Z,5.50
2022-10-11T22:53:35.341Z,5.50
2022-10-11T22:56:02.326Z,5.60
2022-10-11T22:58:29.449Z,5.50
2022-10-11T23:00:56.374Z,5.70
2022-10-11T23:03:23.628Z,5.60
2022-10-11T23:05:58.108Z,5.50
2022-10-11T23:08:25.679Z,5.50
2022-10-11T23:10:53.087Z,5.40
2022-10-11T23:13:20.534Z,5.40
2022-10-11T23:15:47.571Z,5.30
2022-10-11T23:18:16.589Z,5.30
2022-10-11T23:20:43.655Z,5.20
2022-10-11T23:23:10.778Z,5.30
2022-10-11T23:25:37.722Z,5.40
2022-10-11T23:28:04.962Z,5.20
2022-10-11T23:30:32.312Z,5.30
2022-10-11T23:32:59.417Z,5.20
2022-10-11T23:35:26.438Z,5.60
2022-10-11T23:37:54.808Z,5.30
2022-10-11T23:40:21.924Z,5.40
2022-10-11T23:42:48.966Z,5.20
2022-10-11T23:45:17.580Z,5.50
2022-10-11T23:47:44.577Z,5.20
2022-10-11T23:50:11.692Z,5.20
2022-10-11T23:52:38.857Z,5.20
2022-10-11T23:55:06.167Z,5.30
2022-10-11T23:57:33.218Z,5.20
